Adco, Washington
Current Conditions -  °F | °C
As of 1:53 PM on Wednesday 22 Oct 2014 (Local Time) from KEPH Reporting Station
Light Rain Light Rain  
Wind Chill: 54°   Ceiling: 5000
Heat Index: 54°   Visibility: 10mi
Dew Point: 51°   Wind: 5mph
Humidity: 90%   Direction: 170°S
Pressure: 29.79"   Gusts: NA
Location:  47.4314°N, 119.485°W
Report Text: KEPH 222053Z AUTO 17004KT 10SM -RA BKN050 BKN060 OVC085 12/11 A2979 RMK AO2 SLP089 P0003 60005 T01220106 58010
Loading
Personal Weather Stations






























Interactive Weather Map New forecast layout! Learn more

10-Day Weather Forecast

Advertisements
Track Severe Weather on mobile